Time;durP1;ratioP1;P1;durP2;ratioP2;P2;SDS_P1;SDS_P2;PMS_P1;PMS_P2;Temp;Humidity;BMP_temperature;BMP_pressure;BME280_temperature;BME280_humidity;BME280_pressure;Samples;Min_cycle;Max_cycle;Signal;HPM_P1;HPM_P2
2024/01/05 00:04:18;;;;;;;1.40;1.20;;;;;;;1.58;85.41;97930.48;226315;1275;22557;-76
2024/01/05 00:09:20;;;;;;;1.80;1.30;;;;;;;1.57;85.23;97929.86;226194;1275;22533;-76
2024/01/05 00:14:23;;;;;;;2.30;1.60;;;;;;;1.57;85.39;97925.55;226377;1275;22583;-76
2024/01/05 00:19:25;;;;;;;2.30;1.60;;;;;;;1.56;85.45;97936.39;226242;1275;22543;-75
2024/01/05 00:24:28;;;;;;;2.00;1.50;;;;;;;1.54;85.45;97938.16;226164;1275;22537;-76
2024/01/05 00:29:30;;;;;;;2.20;1.40;;;;;;;1.53;85.42;97935.77;226236;1262;22536;-76
2024/01/05 00:34:32;;;;;;;1.90;1.70;;;;;;;1.52;85.36;97939.67;226357;1272;26412;-76
2024/01/05 00:39:35;;;;;;;1.80;1.40;;;;;;;1.51;85.26;97942.81;226287;1275;22563;-76
2024/01/05 00:44:40;;;;;;;2.80;1.60;;;;;;;1.47;85.23;97956.54;226206;1275;22573;-75
2024/01/05 00:49:42;;;;;;;2.70;1.40;;;;;;;1.43;85.10;97952.92;226232;1275;22558;-77
2024/01/05 00:54:44;;;;;;;2.50;1.80;;;;;;;1.39;85.20;97954.21;226325;1275;22603;-76
2024/01/05 00:59:47;;;;;;;2.10;1.90;;;;;;;1.37;85.43;97951.82;226275;1267;22712;-75
2024/01/05 01:04:49;;;;;;;2.90;1.80;;;;;;;1.35;85.32;97961.69;226323;1275;23628;-76
2024/01/05 01:09:52;;;;;;;2.00;1.70;;;;;;;1.33;85.38;97973.92;226315;1275;24254;-74
2024/01/05 01:14:54;;;;;;;3.10;2.30;;;;;;;1.30;85.45;97982.81;226274;1275;25491;-75
2024/01/05 01:19:57;;;;;;;2.90;2.10;;;;;;;1.30;85.45;98002.07;226359;1275;22537;-77
2024/01/05 01:24:59;;;;;;;3.20;2.20;;;;;;;1.35;85.63;98014.98;226294;1275;25977;-75
2024/01/05 01:30:01;;;;;;;3.00;2.40;;;;;;;1.37;85.50;98020.13;226554;1275;22536;-76
2024/01/05 01:35:04;;;;;;;2.90;2.30;;;;;;;1.36;85.32;98011.73;226389;1275;22547;-75
2024/01/05 01:40:08;;;;;;;2.50;2.00;;;;;;;1.35;85.29;98001.63;226380;1275;22558;-76
2024/01/05 01:45:10;;;;;;;2.00;1.70;;;;;;;1.32;85.05;97982.11;226377;1271;22540;-74
2024/01/05 01:50:13;;;;;;;3.00;2.00;;;;;;;1.27;84.58;97994.41;226293;1272;24814;-76
2024/01/05 01:55:17;;;;;;;1.90;1.50;;;;;;;1.24;84.49;97999.61;226465;1275;22621;-75
2024/01/05 02:00:19;;;;;;;2.10;1.30;;;;;;;1.20;84.01;97999.97;226562;1272;22529;-74
2024/01/05 02:05:22;;;;;;;2.20;1.70;;;;;;;1.17;84.01;98008.77;226385;1275;22564;-75
2024/01/05 02:10:24;;;;;;;2.80;2.00;;;;;;;1.15;83.83;98014.34;226421;1273;23706;-75
2024/01/05 02:15:26;;;;;;;2.10;1.80;;;;;;;1.15;83.97;98032.20;226375;1275;22575;-76
2024/01/05 02:20:29;;;;;;;3.80;2.10;;;;;;;1.15;83.80;98036.02;226404;1273;23153;-75
2024/01/05 02:25:31;;;;;;;2.40;2.10;;;;;;;1.16;83.83;98036.30;226272;1270;22550;-76
2024/01/05 02:30:33;;;;;;;4.40;2.70;;;;;;;1.18;83.87;98039.21;226363;1273;22536;-75
2024/01/05 02:35:35;;;;;;;3.60;2.50;;;;;;;1.20;83.76;98036.39;226461;1272;22542;-77
2024/01/05 02:40:37;;;;;;;3.30;2.50;;;;;;;1.21;83.53;98039.06;226199;1275;22559;-76
2024/01/05 02:45:40;;;;;;;2.70;2.40;;;;;;;1.19;83.64;98042.54;226146;1275;23697;-76
2024/01/05 02:50:42;;;;;;;2.90;2.20;;;;;;;1.19;83.45;98049.17;226326;1275;23411;-78
2024/01/05 02:55:44;;;;;;;3.10;1.90;;;;;;;1.18;83.29;98058.92;226197;1272;22564;-75
2024/01/05 03:00:46;;;;;;;2.80;2.20;;;;;;;1.19;83.34;98061.17;226301;1275;24310;-75
2024/01/05 03:05:49;;;;;;;3.10;2.20;;;;;;;1.17;83.31;98055.30;226277;1260;22583;-78
2024/01/05 03:10:51;;;;;;;2.80;2.40;;;;;;;1.15;83.31;98061.98;226237;1275;22738;-76
2024/01/05 03:15:53;;;;;;;3.90;3.10;;;;;;;1.16;83.48;98057.98;226121;1275;22552;-78
2024/01/05 03:20:55;;;;;;;3.60;3.00;;;;;;;1.15;83.46;98055.38;226286;1275;22536;-76
2024/01/05 03:25:57;;;;;;;3.00;2.50;;;;;;;1.16;83.54;98051.35;226320;1275;22594;-77
2024/01/05 03:31:00;;;;;;;3.30;2.50;;;;;;;1.14;83.39;98053.41;226229;1275;22708;-76
2024/01/05 03:36:02;;;;;;;3.00;2.50;;;;;;;1.10;83.28;98054.33;226238;1275;22547;-76
2024/01/05 03:41:04;;;;;;;2.70;2.40;;;;;;;1.09;83.34;98051.46;226384;1274;22526;-76
2024/01/05 03:46:11;;;;;;;3.40;2.80;;;;;;;1.09;83.31;98047.33;226172;1268;22539;-75
2024/01/05 03:51:13;;;;;;;3.20;2.90;;;;;;;1.07;83.41;98047.30;226144;1275;22550;-75
2024/01/05 03:56:15;;;;;;;4.20;3.30;;;;;;;1.04;83.42;98050.66;226345;1275;22558;-74
2024/01/05 04:01:17;;;;;;;3.40;3.00;;;;;;;0.99;83.29;98048.80;226285;1275;22544;-76
2024/01/05 04:06:19;;;;;;;3.50;3.20;;;;;;;0.92;83.42;98051.23;226317;1275;22539;-76
2024/01/05 04:11:22;;;;;;;5.20;3.90;;;;;;;0.85;83.75;98044.80;226317;1252;23292;-76
2024/01/05 04:16:24;;;;;;;5.40;4.30;;;;;;;0.80;83.69;98053.23;226213;1272;22539;-74
2024/01/05 04:21:26;;;;;;;4.80;4.20;;;;;;;0.75;83.91;98046.27;226360;1275;22540;-77
2024/01/05 04:26:28;;;;;;;6.40;4.80;;;;;;;0.72;84.19;98045.33;226192;1275;22536;-75
2024/01/05 04:31:30;;;;;;;6.00;4.50;;;;;;;0.71;84.16;98052.84;226155;1275;22550;-77
2024/01/05 04:36:33;;;;;;;7.20;5.10;;;;;;;0.70;84.37;98067.17;226218;1275;24212;-76
2024/01/05 04:41:35;;;;;;;6.10;5.00;;;;;;;0.71;84.48;98064.27;226226;1275;22535;-76
2024/01/05 04:46:37;;;;;;;7.20;5.20;;;;;;;0.71;84.49;98069.63;226099;1275;25430;-76
2024/01/05 04:51:39;;;;;;;5.80;4.80;;;;;;;0.69;84.45;98071.91;226122;1275;24361;-78
2024/01/05 04:56:45;;;;;;;8.80;6.20;;;;;;;0.69;84.62;98074.67;226220;1267;22552;-76
2024/01/05 05:01:47;;;;;;;8.10;5.40;;;;;;;0.73;84.71;98084.92;226229;1275;24903;-76
2024/01/05 05:06:49;;;;;;;7.00;5.50;;;;;;;0.70;84.64;98093.00;226235;1275;22644;-76
2024/01/05 05:11:51;;;;;;;7.40;6.60;;;;;;;0.69;84.74;98104.16;226183;1275;22537;-75
2024/01/05 05:16:54;;;;;;;8.00;6.30;;;;;;;0.70;84.82;98108.60;226320;1275;22565;-77
2024/01/05 05:21:56;;;;;;;8.30;6.10;;;;;;;0.69;84.87;98115.93;226161;1275;22535;-77
2024/01/05 05:26:58;;;;;;;7.40;6.00;;;;;;;0.64;84.80;98116.05;225976;1275;25259;-77
2024/01/05 05:32:01;;;;;;;7.20;5.60;;;;;;;0.57;84.83;98107.34;226332;1274;22537;-76
2024/01/05 05:37:03;;;;;;;5.40;4.70;;;;;;;0.55;85.02;98106.67;226270;1275;25375;-75
2024/01/05 05:42:06;;;;;;;6.10;5.10;;;;;;;0.52;85.14;98106.95;226212;1275;22566;-75
2024/01/05 05:47:09;;;;;;;6.20;5.20;;;;;;;0.52;85.31;98112.70;226342;1275;22492;-76
2024/01/05 05:52:12;;;;;;;4.70;4.00;;;;;;;0.53;85.60;98100.85;227035;1272;22545;-75
2024/01/05 05:57:14;;;;;;;4.70;4.20;;;;;;;0.54;85.49;98091.17;226251;1259;22618;-75
2024/01/05 06:02:17;;;;;;;9.70;6.30;;;;;;;0.58;85.63;98081.30;226227;1275;23299;-77
2024/01/05 06:07:19;;;;;;;7.30;5.80;;;;;;;0.65;85.87;98077.17;226187;1275;22581;-75
2024/01/05 06:12:21;;;;;;;7.20;5.90;;;;;;;0.72;85.89;98082.58;226192;1275;22565;-76
2024/01/05 06:17:23;;;;;;;8.80;6.60;;;;;;;0.74;85.60;98077.05;226193;1269;22551;-76
2024/01/05 06:22:25;;;;;;;6.90;6.00;;;;;;;0.78;85.84;98068.52;226150;1275;24222;-76
2024/01/05 06:27:27;;;;;;;10.30;7.70;;;;;;;0.81;85.64;98073.08;226094;1275;22657;-76
2024/01/05 06:32:40;;;;;;;8.90;7.00;;;;;;;0.84;85.70;98079.50;226290;1275;22540;-75
2024/01/05 06:37:42;;;;;;;8.80;7.10;;;;;;;0.90;85.81;98092.64;226179;1273;22556;-75
2024/01/05 06:42:45;;;;;;;10.00;6.80;;;;;;;0.91;85.77;98093.80;226216;1275;22568;-76
2024/01/05 06:47:47;;;;;;;7.70;6.20;;;;;;;0.91;85.57;98081.31;226505;1272;22655;-77
2024/01/05 06:52:50;;;;;;;8.20;6.20;;;;;;;0.88;85.40;98079.85;226457;1274;22570;-78
2024/01/05 06:57:52;;;;;;;9.70;7.90;;;;;;;0.93;85.84;98078.35;226146;1267;22555;-76
2024/01/05 07:02:55;;;;;;;11.70;8.90;;;;;;;0.98;85.88;98074.17;226119;1260;24854;-79
2024/01/05 07:07:57;;;;;;;12.90;10.00;;;;;;;1.02;85.64;98078.61;225908;1259;22918;-78
2024/01/05 07:12:59;;;;;;;15.40;10.40;;;;;;;1.07;85.89;98073.52;225937;1256;22552;-75
2024/01/05 07:18:01;;;;;;;19.70;12.80;;;;;;;1.14;85.89;98062.61;225709;1256;22519;-78
2024/01/05 07:23:04;;;;;;;16.90;10.50;;;;;;;1.16;85.60;98055.21;225852;1269;22675;-79
2024/01/05 07:28:08;;;;;;;17.70;10.50;;;;;;;1.15;85.55;98058.17;225567;1256;22533;-75
2024/01/05 07:33:10;;;;;;;16.00;11.40;;;;;;;1.18;85.68;98060.05;225727;1259;22543;-78
2024/01/05 07:38:12;;;;;;;18.20;11.30;;;;;;;1.20;85.71;98065.16;225948;1259;22555;-75
2024/01/05 07:43:14;;;;;;;17.90;12.40;;;;;;;1.22;85.83;98053.84;225821;1255;22574;-74
2024/01/05 07:48:16;;;;;;;20.40;13.20;;;;;;;1.27;85.93;98057.02;225706;1267;22546;-75
2024/01/05 07:53:19;;;;;;;17.90;12.10;;;;;;;1.32;85.92;98050.83;225833;1260;25281;-77
2024/01/05 08:04:35;;;;;;;19.10;13.20;;;;;;;1.48;86.02;98040.57;224911;1276;22576;-78
2024/01/05 08:09:37;;;;;;;20.90;14.00;;;;;;;1.58;85.80;98039.45;224142;1281;22572;-77
2024/01/05 08:14:40;;;;;;;18.30;12.50;;;;;;;1.68;85.82;98040.86;224137;1284;22582;-78
2024/01/05 08:19:43;;;;;;;19.20;13.30;;;;;;;1.81;85.90;98031.66;223766;1283;22612;-77
2024/01/05 08:24:46;;;;;;;18.30;13.10;;;;;;;1.90;85.67;98031.24;223902;1269;22573;-78
2024/01/05 08:29:49;;;;;;;21.10;14.50;;;;;;;1.99;85.72;98042.31;224081;1279;22573;-78
2024/01/05 08:34:51;;;;;;;23.10;15.80;;;;;;;2.05;85.63;98044.09;224121;1271;22573;-79
2024/01/05 08:39:53;;;;;;;24.00;15.60;;;;;;;2.12;85.32;98047.02;223903;1276;22559;-79
2024/01/05 08:44:55;;;;;;;25.50;15.70;;;;;;;2.21;85.52;98048.33;224181;1276;25347;-78
2024/01/05 08:49:57;;;;;;;24.40;16.60;;;;;;;2.29;85.48;98057.01;224214;1270;22567;-79
2024/01/05 08:54:59;;;;;;;24.50;16.80;;;;;;;2.38;85.40;98061.16;224302;1273;25345;-77
2024/01/05 09:00:02;;;;;;;22.40;15.60;;;;;;;2.42;85.10;98049.61;224284;1280;22524;-77
2024/01/05 09:05:06;;;;;;;25.40;18.30;;;;;;;2.42;85.03;98051.89;224289;1290;22547;-78
2024/01/05 09:10:08;;;;;;;25.60;16.40;;;;;;;2.45;85.23;98055.54;224232;1284;22594;-78
2024/01/05 09:15:11;;;;;;;26.00;18.30;;;;;;;2.52;85.21;98063.75;224064;1289;22604;-78
2024/01/05 09:20:13;;;;;;;23.40;15.80;;;;;;;2.64;85.27;98068.64;224276;1287;22533;-80
2024/01/05 09:25:15;;;;;;;23.90;17.20;;;;;;;2.72;84.92;98072.84;224023;1280;22563;-81
2024/01/05 09:30:17;;;;;;;21.00;15.90;;;;;;;2.79;85.07;98069.88;224036;1268;22577;-80
2024/01/05 09:35:21;;;;;;;22.80;16.30;;;;;;;2.92;84.92;98067.30;224159;1288;22554;-77
2024/01/05 09:40:24;;;;;;;20.20;13.80;;;;;;;3.14;84.98;98060.61;224196;1284;22515;-79
2024/01/05 09:45:26;;;;;;;21.70;15.50;;;;;;;3.25;84.40;98066.68;224285;1288;22549;-76
2024/01/05 09:50:29;;;;;;;23.60;17.10;;;;;;;3.31;84.35;98063.57;224307;1284;22573;-77
2024/01/05 09:55:32;;;;;;;22.40;16.40;;;;;;;3.39;84.31;98062.52;224242;1284;22532;-83
2024/01/05 10:00:34;;;;;;;28.80;18.10;;;;;;;3.46;84.23;98048.60;224224;1287;23033;-80
2024/01/05 10:05:36;;;;;;;25.10;16.90;;;;;;;3.49;83.84;98048.40;224155;1270;24251;-79
2024/01/05 10:10:48;;;;;;;23.30;16.80;;;;;;;3.57;83.85;98041.16;224068;1277;22570;-81
2024/01/05 10:16:02;;;;;;;27.50;18.50;;;;;;;3.69;84.35;98040.39;224166;1290;22574;-78
2024/01/05 10:21:09;;;;;;;24.60;17.70;;;;;;;3.72;83.74;98043.86;224272;1290;22677;-80
2024/01/05 10:26:17;;;;;;;25.90;16.40;;;;;;;3.77;83.80;98051.39;224118;1290;22598;-81
2024/01/05 10:31:19;;;;;;;25.20;18.10;;;;;;;3.83;83.64;98040.77;224041;1290;22585;-80
2024/01/05 10:36:23;;;;;;;25.20;18.50;;;;;;;3.90;83.65;98036.91;223818;1289;22563;-79
2024/01/05 10:41:27;;;;;;;26.30;17.90;;;;;;;3.94;83.68;98031.34;224081;1290;22565;-78
2024/01/05 10:46:32;;;;;;;46.60;32.40;;;;;;;4.00;83.62;98028.13;224049;1285;22597;-80
2024/01/05 10:51:35;;;;;;;28.00;19.20;;;;;;;4.13;83.54;98032.20;224113;1274;22596;-80
2024/01/05 10:56:41;;;;;;;27.00;19.90;;;;;;;4.29;83.74;98027.95;224254;1285;22607;-80
2024/01/05 11:01:44;;;;;;;30.90;20.50;;;;;;;4.50;83.69;98017.67;224162;1287;22874;-80
2024/01/05 11:06:48;;;;;;;27.80;19.70;;;;;;;4.67;83.50;98015.91;223920;1280;22599;-78
2024/01/05 11:12:22;;;;;;;30.30;21.20;;;;;;;4.81;83.41;98010.02;223510;1289;22590;-78
2024/01/05 11:17:36;;;;;;;31.90;21.80;;;;;;;4.93;82.83;97999.88;223819;1284;26018;-79
2024/01/05 11:22:45;;;;;;;29.30;21.00;;;;;;;5.03;83.04;97994.45;223808;1267;22677;-79
2024/01/05 11:27:47;;;;;;;31.20;21.40;;;;;;;5.04;82.46;97991.16;223807;1269;173734;-79
2024/01/05 11:32:49;;;;;;;29.50;20.30;;;;;;;5.10;82.61;97986.86;223920;1284;22600;-79
2024/01/05 11:37:52;;;;;;;29.50;21.30;;;;;;;5.15;82.47;97980.77;224076;1282;22720;-79
2024/01/05 11:42:59;;;;;;;28.90;20.20;;;;;;;5.12;82.22;97970.92;223922;1290;22902;-78
2024/01/05 11:48:01;;;;;;;26.00;19.30;;;;;;;5.17;82.03;97963.86;224209;1275;23273;-78
2024/01/05 11:53:11;;;;;;;23.60;17.50;;;;;;;5.25;82.24;97952.79;223948;1274;22573;-79
2024/01/05 11:58:18;;;;;;;23.60;18.00;;;;;;;5.34;82.00;97948.29;223946;1289;22594;-78
2024/01/05 12:03:22;;;;;;;55.30;40.50;;;;;;;5.43;82.04;97946.61;224130;1287;22926;-78
2024/01/05 12:08:25;;;;;;;26.80;18.30;;;;;;;5.53;82.05;97947.15;224121;1287;23047;-80
2024/01/05 12:13:29;;;;;;;29.60;21.30;;;;;;;5.64;82.20;97945.52;224021;1290;22574;-80
2024/01/05 12:18:33;;;;;;;29.40;19.50;;;;;;;5.75;82.14;97940.85;224186;1272;22596;-79
2024/01/05 12:23:51;;;;;;;22.10;15.70;;;;;;;5.80;82.15;97928.13;224092;1287;22570;-79
2024/01/05 12:28:53;;;;;;;22.30;16.90;;;;;;;5.74;81.53;97915.00;223834;1290;23624;-80
2024/01/05 12:33:56;;;;;;;21.80;16.70;;;;;;;5.66;81.52;97906.65;224070;1290;22582;-80
2024/01/05 12:39:11;;;;;;;22.10;16.20;;;;;;;5.60;81.46;97914.61;223996;1290;23974;-80
2024/01/05 12:44:15;;;;;;;25.80;17.10;;;;;;;5.61;82.14;97909.33;224229;1287;23081;-79
2024/01/05 12:49:22;;;;;;;25.60;18.10;;;;;;;5.64;82.22;97903.77;224156;1290;22744;-79
2024/01/05 12:54:26;;;;;;;25.30;17.90;;;;;;;5.68;81.92;97905.98;224126;1289;22589;-81
2024/01/05 12:59:30;;;;;;;27.20;18.20;;;;;;;5.70;82.24;97907.79;224173;1284;22544;-79
2024/01/05 13:04:34;;;;;;;25.60;18.10;;;;;;;5.66;81.97;97908.58;224104;1288;25319;-80
2024/01/05 13:09:42;;;;;;;26.80;17.50;;;;;;;5.62;82.38;97900.83;224481;1284;22551;-80
2024/01/05 13:14:44;;;;;;;26.20;19.30;;;;;;;5.59;82.41;97890.26;223966;1289;25452;-80
2024/01/05 13:19:47;;;;;;;29.10;21.30;;;;;;;5.50;82.00;97886.08;224028;1274;23672;-80
2024/01/05 13:24:49;;;;;;;29.50;20.50;;;;;;;5.37;82.37;97882.88;224043;1291;22945;-80
2024/01/05 13:29:53;;;;;;;270.70;178.40;;;;;;;5.24;82.12;97877.71;224135;1276;22578;-79
2024/01/05 13:34:55;;;;;;;38.10;23.40;;;;;;;5.17;82.71;97865.84;223699;1292;22601;-79
2024/01/05 13:39:58;;;;;;;28.90;19.70;;;;;;;5.13;82.56;97858.21;223830;1290;22571;-80
2024/01/05 13:45:10;;;;;;;30.20;21.50;;;;;;;5.06;82.76;97855.63;224038;1289;24441;-78
2024/01/05 13:50:12;;;;;;;34.60;25.20;;;;;;;4.95;82.87;97850.20;223981;1290;25331;-80
2024/01/05 13:55:14;;;;;;;30.60;23.00;;;;;;;4.79;82.42;97857.05;224014;1287;22655;-79
2024/01/05 14:00:17;;;;;;;31.50;23.70;;;;;;;4.60;82.48;97861.16;224124;1279;23415;-78
2024/01/05 14:05:19;;;;;;;31.60;24.30;;;;;;;4.41;82.49;97859.48;224015;1290;22598;-77
2024/01/05 14:10:21;;;;;;;30.70;22.50;;;;;;;4.27;82.80;97858.56;224082;1287;22571;-79
2024/01/05 14:15:23;;;;;;;29.10;21.90;;;;;;;4.17;82.99;97846.98;224202;1268;22577;-79
2024/01/05 14:20:25;;;;;;;31.80;23.30;;;;;;;4.05;83.14;97839.68;224258;1290;22556;-79
2024/01/05 14:25:27;;;;;;;34.40;24.30;;;;;;;3.91;83.12;97842.75;223971;1277;22566;-78
2024/01/05 14:30:29;;;;;;;34.60;24.50;;;;;;;3.78;83.20;97856.70;224349;1286;22561;-79
2024/01/05 14:35:32;;;;;;;38.40;27.20;;;;;;;3.71;83.41;97859.03;224166;1287;22513;-80
2024/01/05 14:40:34;;;;;;;35.10;24.00;;;;;;;3.58;83.31;97853.32;224107;1283;22533;-80
2024/01/05 14:45:36;;;;;;;29.50;19.30;;;;;;;3.43;83.61;97849.11;224037;1282;22566;-83
2024/01/05 14:50:39;;;;;;;26.60;20.20;;;;;;;3.31;83.79;97857.73;224443;1284;24253;-77
2024/01/05 14:55:41;;;;;;;31.70;20.90;;;;;;;3.16;83.57;97862.38;224513;1289;22572;-83
2024/01/05 15:00:43;;;;;;;25.60;17.40;;;;;;;3.03;83.97;97858.73;224155;1290;22516;-84
2024/01/05 15:05:51;;;;;;;29.70;19.50;;;;;;;2.97;84.35;97861.14;224330;1274;22570;-81
2024/01/05 15:10:54;;;;;;;33.50;23.40;;;;;;;2.88;84.23;97856.92;224275;1290;22620;-82
2024/01/05 15:15:58;;;;;;;30.30;21.70;;;;;;;2.79;84.43;97845.92;224066;1290;22571;-80
2024/01/05 15:21:01;;;;;;;30.50;23.00;;;;;;;2.76;84.79;97840.49;224301;1290;22584;-80
2024/01/05 15:26:09;;;;;;;33.90;23.80;;;;;;;2.71;84.79;97838.40;224225;1290;22629;-82
2024/01/05 15:31:21;;;;;;;30.40;20.90;;;;;;;2.59;84.58;97837.05;224335;1290;22609;-81
2024/01/05 15:36:27;;;;;;;30.80;20.70;;;;;;;2.48;84.78;97844.80;224918;1289;22502;-82
2024/01/05 15:41:30;;;;;;;33.40;22.80;;;;;;;2.41;84.92;97855.42;225223;1286;22610;-82
2024/01/05 15:46:33;;;;;;;37.20;23.90;;;;;;;2.37;85.18;97844.58;224402;1289;25451;-83
2024/01/05 15:51:37;;;;;;;40.90;25.30;;;;;;;2.34;85.36;97836.27;224494;1288;22563;-82
2024/01/05 15:56:39;;;;;;;38.10;24.10;;;;;;;2.29;85.42;97840.86;224258;1290;26267;-83
2024/01/05 16:01:47;;;;;;;39.10;24.40;;;;;;;2.21;85.34;97838.11;224279;1290;22608;-81
2024/01/05 16:06:51;;;;;;;41.70;26.70;;;;;;;2.20;85.80;97836.32;225239;1290;22627;-82
2024/01/05 16:11:55;;;;;;;40.30;25.40;;;;;;;2.24;86.06;97823.58;224525;1276;23293;-82
2024/01/05 16:17:00;;;;;;;42.50;27.00;;;;;;;2.27;85.98;97824.46;224484;1290;22514;-83
2024/01/05 16:22:04;;;;;;;48.80;29.40;;;;;;;2.29;86.30;97830.83;224438;1288;22547;-83
2024/01/05 16:27:08;;;;;;;52.60;30.50;;;;;;;2.32;86.20;97828.14;224402;1288;22564;-82
2024/01/05 16:32:13;;;;;;;48.40;27.90;;;;;;;2.34;86.37;97829.58;224784;1273;22583;-82
2024/01/05 16:37:16;;;;;;;42.70;23.00;;;;;;;2.39;86.61;97832.21;224771;1286;22556;-82
2024/01/05 16:42:23;;;;;;;35.50;21.20;;;;;;;2.43;86.67;97840.05;224264;1290;22601;-83
2024/01/05 16:47:26;;;;;;;34.90;21.70;;;;;;;2.48;86.78;97839.06;224643;1279;22599;-83
2024/01/05 16:52:29;;;;;;;36.80;22.20;;;;;;;2.49;86.69;97837.40;224556;1274;22567;-81
2024/01/05 16:57:33;;;;;;;38.40;22.50;;;;;;;2.53;86.99;97839.42;224456;1288;25437;-84
2024/01/05 17:02:36;;;;;;;40.40;24.20;;;;;;;2.58;86.84;97837.98;224297;1285;22581;-83
2024/01/05 17:07:42;;;;;;;39.40;23.60;;;;;;;2.60;86.99;97835.26;224431;1290;22610;-83
2024/01/05 17:12:46;;;;;;;41.80;25.10;;;;;;;2.61;87.05;97838.36;224480;1290;22563;-85
2024/01/05 17:17:53;;;;;;;40.10;22.20;;;;;;;2.65;86.90;97848.24;224661;1290;22617;-84
2024/01/05 17:22:58;;;;;;;36.50;21.30;;;;;;;2.66;86.75;97844.86;224548;1290;22528;-83
2024/01/05 17:28:04;;;;;;;35.00;22.90;;;;;;;2.66;86.88;97847.31;225279;1290;23158;-80
2024/01/05 17:33:10;;;;;;;31.70;20.90;;;;;;;2.68;86.92;97853.00;224287;1290;22562;-84
2024/01/05 17:38:14;;;;;;;39.30;23.00;;;;;;;2.70;86.84;97853.09;224984;1290;22758;-85
2024/01/05 17:43:19;;;;;;;36.70;23.80;;;;;;;2.71;86.80;97857.86;225124;1280;22567;-83
2024/01/05 17:48:25;;;;;;;38.10;23.20;;;;;;;2.66;86.58;97851.80;224869;1290;22570;-82
2024/01/05 17:53:30;;;;;;;37.20;23.40;;;;;;;2.60;86.66;97849.76;224817;1290;22517;-84
2024/01/05 17:58:34;;;;;;;37.20;23.70;;;;;;;2.58;86.77;97848.75;225098;1290;22527;-82
2024/01/05 18:03:36;;;;;;;39.50;23.70;;;;;;;2.53;86.49;97848.80;224831;1290;22562;-85
2024/01/05 18:08:44;;;;;;;36.20;22.30;;;;;;;2.47;86.72;97862.13;224421;1290;22552;-81
2024/01/05 18:13:47;;;;;;;36.40;23.30;;;;;;;2.37;86.58;97862.65;224480;1289;22563;-83
2024/01/05 18:18:52;;;;;;;34.50;23.70;;;;;;;2.26;86.59;97858.94;224368;1290;22535;-83
2024/01/05 18:23:59;;;;;;;34.30;22.60;;;;;;;2.12;86.56;97861.95;224418;1286;22634;-82
2024/01/05 18:29:06;;;;;;;33.60;21.50;;;;;;;1.95;86.44;97864.91;224447;1269;22587;-84
2024/01/05 18:34:25;;;;;;;36.90;23.20;;;;;;;1.83;86.96;97863.05;224190;1289;22580;-82
2024/01/05 18:39:30;;;;;;;37.60;23.80;;;;;;;1.79;87.34;97859.07;224777;1289;22556;-83
2024/01/05 18:44:41;;;;;;;36.20;24.90;;;;;;;1.81;87.59;97854.05;224523;1290;22594;-83
2024/01/05 18:49:44;;;;;;;39.10;26.40;;;;;;;1.80;87.43;97862.27;224461;1290;22548;-81
2024/01/05 18:54:49;;;;;;;39.80;25.70;;;;;;;1.74;87.50;97865.83;224222;1290;22595;-82
2024/01/05 18:59:54;;;;;;;42.20;25.10;;;;;;;1.72;87.64;97862.92;224422;1287;23275;-83
2024/01/05 19:04:59;;;;;;;47.10;26.80;;;;;;;1.69;87.61;97869.63;224591;1289;22581;-81
2024/01/05 19:10:03;;;;;;;49.90;30.50;;;;;;;1.68;87.71;97875.61;224300;1287;25418;-82
2024/01/05 19:15:07;;;;;;;49.80;30.60;;;;;;;1.68;87.78;97874.61;224386;1266;22705;-83
2024/01/05 19:20:09;;;;;;;47.20;28.50;;;;;;;1.69;88.05;97874.13;224253;1289;22584;-84
2024/01/05 19:25:13;;;;;;;51.60;30.60;;;;;;;1.66;87.69;97873.10;224261;1289;22610;-84
2024/01/05 19:30:18;;;;;;;51.20;29.50;;;;;;;1.64;88.13;97879.98;224542;1289;22504;-84
2024/01/05 19:35:21;;;;;;;56.70;33.20;;;;;;;1.65;88.11;97881.70;224396;1290;22517;-84
2024/01/05 19:40:23;;;;;;;57.60;33.10;;;;;;;1.63;88.07;97888.08;224411;1288;22573;-81
2024/01/05 19:45:28;;;;;;;58.50;31.80;;;;;;;1.66;88.21;97893.75;224330;1290;23597;-82
2024/01/05 19:50:31;;;;;;;59.10;33.20;;;;;;;1.69;88.23;97901.55;224312;1290;24248;-82
2024/01/05 19:55:37;;;;;;;60.40;34.10;;;;;;;1.70;88.27;97899.38;224233;1279;22590;-83
2024/01/05 20:00:41;;;;;;;58.80;33.00;;;;;;;1.72;88.20;97887.75;224257;1289;22580;-82
2024/01/05 20:05:47;;;;;;;64.00;35.40;;;;;;;1.72;88.16;97879.91;224457;1289;24653;-83
2024/01/05 20:10:57;;;;;;;49.50;29.00;;;;;;;1.71;88.10;97881.92;224401;1284;22467;-83
2024/01/05 20:16:01;;;;;;;60.40;32.50;;;;;;;1.69;88.13;97883.88;224338;1274;22668;-83
2024/01/05 20:21:12;;;;;;;59.00;33.30;;;;;;;1.70;88.16;97874.91;224496;1289;22595;-84
2024/01/05 20:26:19;;;;;;;56.90;32.50;;;;;;;1.71;88.23;97871.89;224386;1289;22554;-81
2024/01/05 20:31:24;;;;;;;70.60;36.50;;;;;;;1.67;88.11;97865.65;224473;1282;24247;-84
2024/01/05 20:36:30;;;;;;;57.70;30.70;;;;;;;1.65;88.19;97863.45;224497;1287;22516;-82
2024/01/05 20:41:38;;;;;;;56.10;29.90;;;;;;;1.66;88.36;97867.20;224413;1290;22573;-84
2024/01/05 20:46:41;;;;;;;54.40;29.20;;;;;;;1.68;88.48;97869.20;224346;1290;25297;-83
2024/01/05 20:51:45;;;;;;;70.20;32.90;;;;;;;1.69;88.44;97869.47;224367;1290;22582;-82
2024/01/05 20:56:53;;;;;;;71.80;36.40;;;;;;;1.67;88.47;97864.30;224313;1289;22590;-83
2024/01/05 21:01:57;;;;;;;63.00;32.10;;;;;;;1.65;88.45;97862.60;224792;1287;22560;-83
2024/01/05 21:07:01;;;;;;;69.00;34.70;;;;;;;1.66;88.56;97863.55;224415;1290;22595;-83
2024/01/05 21:12:09;;;;;;;67.40;32.00;;;;;;;1.67;88.60;97851.40;224764;1277;22578;-82
2024/01/05 21:17:15;;;;;;;59.70;30.80;;;;;;;1.65;88.59;97843.84;225168;1289;22559;-85
2024/01/05 21:22:19;;;;;;;59.30;29.30;;;;;;;1.65;88.38;97843.44;224412;1276;22591;-82
2024/01/05 21:27:22;;;;;;;59.00;29.80;;;;;;;1.62;88.52;97849.04;224291;1290;25428;-83
2024/01/05 21:32:28;;;;;;;63.50;31.80;;;;;;;1.62;88.57;97841.39;224328;1289;22568;-83
2024/01/05 21:37:33;;;;;;;61.50;30.40;;;;;;;1.64;88.65;97840.47;224248;1276;25331;-82
2024/01/05 21:42:38;;;;;;;59.40;28.90;;;;;;;1.59;88.43;97833.66;224901;1273;27090;-82
2024/01/05 21:47:42;;;;;;;59.70;29.40;;;;;;;1.52;88.71;97831.48;224571;1289;22575;-83
2024/01/05 21:52:46;;;;;;;64.20;29.60;;;;;;;1.51;88.73;97831.16;224995;1290;22628;-83
2024/01/05 21:57:52;;;;;;;58.50;25.60;;;;;;;1.51;88.71;97835.03;224995;1290;22631;-85
2024/01/05 22:02:58;;;;;;;61.10;27.80;;;;;;;1.49;88.76;97835.29;224424;1289;22939;-83
2024/01/05 22:08:09;;;;;;;56.70;26.70;;;;;;;1.47;88.91;97837.70;225014;1289;24233;-81
2024/01/05 22:13:15;;;;;;;63.90;30.40;;;;;;;1.47;88.93;97830.27;224570;1274;22578;-81
2024/01/05 22:18:17;;;;;;;52.60;27.00;;;;;;;1.49;89.01;97827.24;224365;1290;22521;-84
2024/01/05 22:23:23;;;;;;;56.00;27.90;;;;;;;1.45;88.91;97820.35;224443;1290;22566;-81
2024/01/05 22:28:26;;;;;;;59.90;30.00;;;;;;;1.45;88.96;97820.41;224183;1290;22574;-83
2024/01/05 22:33:30;;;;;;;55.10;27.00;;;;;;;1.45;89.08;97823.52;224338;1288;22577;-82
2024/01/05 22:38:33;;;;;;;58.70;29.20;;;;;;;1.46;89.15;97816.83;224356;1271;22559;-81
2024/01/05 22:43:38;;;;;;;60.10;28.40;;;;;;;1.46;89.04;97806.40;224356;1274;22635;-82
2024/01/05 22:48:41;;;;;;;51.40;26.10;;;;;;;1.41;88.92;97800.96;224349;1290;22592;-82
2024/01/05 22:53:50;;;;;;;60.50;28.10;;;;;;;1.40;89.02;97803.69;224926;1280;22930;-83
2024/01/05 22:58:53;;;;;;;52.30;27.10;;;;;;;1.38;89.00;97798.98;224424;1290;22549;-81
2024/01/05 23:04:00;;;;;;;75.40;31.70;;;;;;;1.36;89.09;97801.94;224569;1290;22665;-81
2024/01/05 23:09:04;;;;;;;63.10;28.60;;;;;;;1.37;88.92;97805.73;224315;1290;22913;-82
2024/01/05 23:14:11;;;;;;;50.50;25.70;;;;;;;1.34;89.08;97806.73;224083;1289;22582;-81
2024/01/05 23:19:16;;;;;;;62.20;29.30;;;;;;;1.28;88.74;97795.01;224718;1290;22539;-81
2024/01/05 23:24:18;;;;;;;90.40;32.20;;;;;;;1.21;88.74;97782.50;224184;1290;22522;-82
2024/01/05 23:29:24;;;;;;;85.90;33.00;;;;;;;1.18;88.81;97789.00;224156;1290;346592;-81
2024/01/05 23:34:27;;;;;;;56.40;27.50;;;;;;;1.16;88.98;97790.68;224201;1290;22566;-82